createdAt,value
2023-03-24T00:00:40.795Z,99414.81
2023-03-24T00:03:08.936Z,99425.91
2023-03-24T00:05:36.950Z,99425.91
2023-03-24T00:08:04.900Z,99422.38
2023-03-24T00:10:34.950Z,99417.75
2023-03-24T00:13:02.961Z,99417.75
2023-03-24T00:15:31.377Z,99416.28
2023-03-24T00:17:59.344Z,99419.00
2023-03-24T00:20:27.453Z,99402.47
2023-03-24T00:22:57.323Z,99392.63
2023-03-24T00:25:28.754Z,99393.66
2023-03-24T00:27:57.807Z,99383.59
2023-03-24T00:30:26.452Z,99393.66
2023-03-24T00:32:54.663Z,99384.44
2023-03-24T00:35:22.600Z,99377.75
2023-03-24T00:37:52.270Z,99372.50
2023-03-24T00:40:21.207Z,99375.22
2023-03-24T00:42:49.141Z,99373.56
2023-03-24T00:45:18.287Z,99371.03
2023-03-24T00:47:46.326Z,99370.19
2023-03-24T00:50:14.357Z,99368.31
2023-03-24T00:52:48.211Z,99359.28
2023-03-24T00:55:16.370Z,99353.03
2023-03-24T00:57:50.500Z,99346.72
2023-03-24T01:00:19.845Z,99341.25
2023-03-24T01:02:48.031Z,99337.28
2023-03-24T01:05:21.124Z,99333.72
2023-03-24T01:07:52.178Z,99329.53
2023-03-24T01:10:20.074Z,99326.59
2023-03-24T01:12:50.464Z,99324.91
2023-03-24T01:15:18.476Z,99326.59
2023-03-24T01:17:47.232Z,99325.78
2023-03-24T01:20:15.304Z,99322.81
2023-03-24T01:22:45.080Z,99332.47
2023-03-24T01:25:13.804Z,99325.34
2023-03-24T01:27:41.863Z,99328.06
2023-03-24T01:30:09.852Z,99329.09
2023-03-24T01:32:37.955Z,99322.38
2023-03-24T01:35:06.451Z,99330.16
2023-03-24T01:37:34.367Z,99324.72
2023-03-24T01:40:02.375Z,99333.91
2023-03-24T01:42:30.440Z,99321.34
2023-03-24T01:44:58.322Z,99309.63
2023-03-24T01:47:26.419Z,99309.63
2023-03-24T01:49:54.319Z,99308.75
2023-03-24T01:52:22.238Z,99311.50
2023-03-24T01:54:50.379Z,99300.81
2023-03-24T01:57:18.321Z,99302.47
2023-03-24T01:59:46.377Z,99295.13
2023-03-24T02:02:14.772Z,99290.56
2023-03-24T02:04:42.682Z,99280.50
2023-03-24T02:07:10.618Z,99281.13
2023-03-24T02:09:38.631Z,99271.69
2023-03-24T02:12:06.619Z,99271.25
2023-03-24T02:14:34.659Z,99272.94
2023-03-24T02:17:02.635Z,99277.97
2023-03-24T02:19:38.221Z,99272.09
2023-03-24T02:22:06.732Z,99274.59
2023-03-24T02:24:34.653Z,99269.16
2023-03-24T02:27:03.442Z,99266.63
2023-03-24T02:29:31.523Z,99264.34
2023-03-24T02:31:59.497Z,99264.78
2023-03-24T02:34:27.475Z,99262.03
2023-03-24T02:36:55.416Z,99269.59
2023-03-24T02:39:24.534Z,99267.69
2023-03-24T02:41:52.449Z,99273.78
2023-03-24T02:44:20.553Z,99265.16
2023-03-24T02:46:48.509Z,99266.44
2023-03-24T02:49:16.498Z,99262.88
2023-03-24T02:51:44.382Z,99258.25
2023-03-24T02:54:12.363Z,99253.25
2023-03-24T02:56:40.356Z,99248.63
2023-03-24T02:59:08.397Z,99242.34
2023-03-24T03:01:38.010Z,99251.56
2023-03-24T03:04:06.084Z,99234.38
2023-03-24T03:06:33.985Z,99231.03
2023-03-24T03:09:01.989Z,99235.63
2023-03-24T03:11:29.946Z,99235.63
2023-03-24T03:13:57.996Z,99233.97
2023-03-24T03:16:25.893Z,99233.97
2023-03-24T03:18:53.920Z,99223.28
2023-03-24T03:21:22.525Z,99226.00
2023-03-24T03:23:50.600Z,99216.81
2023-03-24T03:26:18.548Z,99219.53
2023-03-24T03:28:50.309Z,99211.56
2023-03-24T03:31:18.323Z,99218.47
2023-03-24T03:33:46.350Z,99215.94
2023-03-24T03:36:14.342Z,99215.94
2023-03-24T03:38:42.391Z,99205.03
2023-03-24T03:41:10.286Z,99200.22
2023-03-24T03:43:38.380Z,99200.84
2023-03-24T03:46:07.420Z,99198.56
2023-03-24T03:48:35.559Z,99205.03
2023-03-24T03:51:13.224Z,99205.91
2023-03-24T03:53:41.982Z,99213.00
2023-03-24T03:56:10.062Z,99213.84
2023-03-24T03:58:38.027Z,99202.75
2023-03-24T04:01:06.823Z,99193.75
2023-03-24T04:03:34.868Z,99198.13
2023-03-24T04:06:04.191Z,99195.59
2023-03-24T04:08:32.152Z,99182.84
2023-03-24T04:11:00.053Z,99177.41
2023-03-24T04:13:27.985Z,99179.25
2023-03-24T04:15:56.531Z,99168.59
2023-03-24T04:18:24.570Z,99175.94
2023-03-24T04:20:52.470Z,99168.59
2023-03-24T04:23:22.900Z,99167.78
2023-03-24T04:25:56.809Z,99162.09
2023-03-24T04:28:26.719Z,99161.06
2023-03-24T04:30:56.205Z,99154.75
2023-03-24T04:33:25.241Z,99151.19
2023-03-24T04:35:53.302Z,99139.25
2023-03-24T04:38:23.250Z,99144.28
2023-03-24T04:40:51.147Z,99150.16
2023-03-24T04:43:19.076Z,99148.91
2023-03-24T04:45:49.990Z,99139.91
2023-03-24T04:48:18.276Z,99139.28
2023-03-24T04:50:46.245Z,99132.56
2023-03-24T04:53:14.059Z,99134.22
2023-03-24T04:55:42.050Z,99131.72
2023-03-24T04:58:10.146Z,99130.91
2023-03-24T05:00:38.216Z,99120.22
2023-03-24T05:03:06.054Z,99109.97
2023-03-24T05:05:34.124Z,99113.31
2023-03-24T05:08:02.084Z,99108.47
2023-03-24T05:10:30.262Z,99100.31
2023-03-24T05:12:58.615Z,99104.09
2023-03-24T05:15:26.713Z,99093.78
2023-03-24T05:17:54.627Z,99100.31
2023-03-24T05:20:22.429Z,99089.84
2023-03-24T05:22:50.270Z,99087.75
2023-03-24T05:25:18.130Z,99094.25
2023-03-24T05:27:46.059Z,99092.13
2023-03-24T05:30:13.861Z,99088.59
2023-03-24T05:32:41.735Z,99092.34
2023-03-24T05:35:09.616Z,99091.53
2023-03-24T05:37:37.505Z,99095.94
2023-03-24T05:40:05.359Z,99089.03
2023-03-24T05:42:33.407Z,99083.59
2023-03-24T05:45:01.220Z,99075.19
2023-03-24T05:47:29.148Z,99078.53
2023-03-24T05:49:57.048Z,99076.41
2023-03-24T05:52:26.102Z,99074.91
2023-03-24T05:54:55.196Z,99061.09
2023-03-24T05:57:23.076Z,99070.28
2023-03-24T05:59:52.216Z,99070.09
2023-03-24T06:02:20.343Z,99077.19
2023-03-24T06:04:49.584Z,99067.97
2023-03-24T06:07:17.440Z,99069.63
2023-03-24T06:09:47.075Z,99063.38
2023-03-24T06:12:16.311Z,99069.63
2023-03-24T06:14:45.569Z,99061.25
2023-03-24T06:17:15.393Z,99061.88
2023-03-24T06:19:49.865Z,99062.72
2023-03-24T06:22:17.956Z,99067.09
2023-03-24T06:24:47.087Z,99062.25
2023-03-24T06:27:15.730Z,99062.47
2023-03-24T06:29:43.749Z,99049.09
2023-03-24T06:32:11.571Z,99052.44
2023-03-24T06:34:40.650Z,99049.47
2023-03-24T06:37:08.870Z,99044.84
2023-03-24T06:39:36.683Z,99040.25
2023-03-24T06:42:04.527Z,99034.81
2023-03-24T06:44:32.358Z,99038.56
2023-03-24T06:47:00.183Z,99032.28
2023-03-24T06:49:27.990Z,99020.31
2023-03-24T06:51:55.871Z,99031.84
2023-03-24T06:54:23.646Z,99024.50
2023-03-24T06:56:52.002Z,99033.53
2023-03-24T06:59:23.769Z,99028.66
2023-03-24T07:01:52.185Z,99040.63
2023-03-24T07:04:20.068Z,99037.91
2023-03-24T07:07:05.124Z,99044.81
2023-03-24T07:09:35.798Z,99038.53
2023-03-24T07:12:03.767Z,99029.53
2023-03-24T07:14:31.550Z,99028.25
2023-03-24T07:16:59.964Z,99035.56
2023-03-24T07:19:27.707Z,99020.06
2023-03-24T07:21:55.493Z,99019.00
2023-03-24T07:24:23.287Z,99016.28
2023-03-24T07:26:51.262Z,99018.75
2023-03-24T07:29:19.395Z,99031.13
2023-03-24T07:31:48.836Z,99040.34
2023-03-24T07:34:16.729Z,99042.63
2023-03-24T07:36:44.567Z,99060.44
2023-03-24T07:39:13.234Z,99054.53
2023-03-24T07:41:41.215Z,99054.94
2023-03-24T07:44:09.050Z,99040.50
2023-03-24T07:46:37.387Z,99044.03
2023-03-24T07:49:18.129Z,99044.03
2023-03-24T07:51:46.428Z,99035.88
2023-03-24T07:54:14.538Z,99037.53
2023-03-24T07:56:42.833Z,99030.19
2023-03-24T07:59:10.938Z,99034.59
2023-03-24T08:01:39.042Z,99036.69
2023-03-24T08:04:07.456Z,99025.59
2023-03-24T08:06:35.495Z,99034.13
2023-03-24T08:09:03.933Z,99030.13
2023-03-24T08:11:31.814Z,99016.50
2023-03-24T08:13:59.708Z,99037.47
2023-03-24T08:16:27.535Z,99036.66
2023-03-24T08:18:58.147Z,99032.41
2023-03-24T08:21:26.247Z,99048.75
2023-03-24T08:23:54.161Z,99052.56
2023-03-24T08:26:22.669Z,99047.69
2023-03-24T08:28:51.915Z,99042.84
2023-03-24T08:31:19.920Z,99053.56
2023-03-24T08:33:47.762Z,99064.22
2023-03-24T08:36:15.631Z,99059.38
2023-03-24T08:38:43.464Z,99064.63
2023-03-24T08:41:11.359Z,99062.94
2023-03-24T08:43:39.217Z,99071.13
2023-03-24T08:46:07.288Z,99068.38
2023-03-24T08:48:37.197Z,99069.25
2023-03-24T08:51:05.024Z,99068.19
2023-03-24T08:53:32.876Z,99070.91
2023-03-24T08:56:01.076Z,99075.28
2023-03-24T08:58:28.904Z,99074.91
2023-03-24T09:00:56.795Z,99087.25
2023-03-24T09:03:24.579Z,99087.63
2023-03-24T09:05:52.477Z,99089.28
2023-03-24T09:08:20.378Z,99091.19
2023-03-24T09:10:48.334Z,99092.63
2023-03-24T09:13:16.644Z,99088.25
2023-03-24T09:15:44.904Z,99085.28
2023-03-24T09:18:12.835Z,99083.63
2023-03-24T09:20:40.876Z,99086.34
2023-03-24T09:23:08.706Z,99086.13
2023-03-24T09:25:36.587Z,99084.44
2023-03-24T09:28:04.499Z,99083.84
2023-03-24T09:30:35.200Z,99082.56
2023-03-24T09:33:03.265Z,99082.13
2023-03-24T09:35:32.661Z,99083.16
2023-03-24T09:38:00.516Z,99087.34
2023-03-24T09:40:28.455Z,99080.81
2023-03-24T09:42:56.407Z,99080.81
2023-03-24T09:45:24.624Z,99081.44
2023-03-24T09:47:52.549Z,99083.53
2023-03-24T09:50:22.734Z,99081.69
2023-03-24T09:52:50.920Z,99077.66
2023-03-24T09:55:18.805Z,99082.06
2023-03-24T09:57:46.707Z,99074.06
2023-03-24T10:00:14.571Z,99069.69
2023-03-24T10:02:42.466Z,99082.06
2023-03-24T10:05:10.414Z,99072.59
2023-03-24T10:07:38.215Z,99064.56
2023-03-24T10:10:06.221Z,99075.53
2023-03-24T10:12:34.280Z,99084.56
2023-03-24T10:15:02.134Z,99076.81
2023-03-24T10:17:30.037Z,99083.13
2023-03-24T10:20:00.298Z,99092.34
2023-03-24T10:22:28.357Z,99096.75
2023-03-24T10:24:56.160Z,99099.50
2023-03-24T10:27:23.959Z,99100.06
2023-03-24T10:29:51.854Z,99097.81
2023-03-24T10:32:22.420Z,99088.41
2023-03-24T10:34:50.425Z,99090.06
2023-03-24T10:37:18.467Z,99094.25
2023-03-24T10:39:46.564Z,99094.69
2023-03-24T10:42:14.458Z,99100.59
2023-03-24T10:44:42.311Z,99092.63
2023-03-24T10:47:10.098Z,99103.94
2023-03-24T10:49:38.110Z,99093.34
2023-03-24T10:52:06.131Z,99090.03
2023-03-24T10:54:35.517Z,99097.19
2023-03-24T10:57:03.823Z,99085.00
2023-03-24T10:59:32.886Z,99094.19
2023-03-24T11:02:00.791Z,99124.78
2023-03-24T11:04:28.685Z,99127.09
2023-03-24T11:06:56.485Z,99122.22
2023-03-24T11:09:24.538Z,99127.69
2023-03-24T11:11:53.686Z,99131.47
2023-03-24T11:14:22.492Z,99140.75
2023-03-24T11:16:50.373Z,99153.75
2023-03-24T11:19:19.256Z,99149.78
2023-03-24T11:21:48.811Z,99151.91
2023-03-24T11:24:16.871Z,99153.81
2023-03-24T11:26:44.928Z,99162.22
2023-03-24T11:29:12.796Z,99161.59
2023-03-24T11:31:40.700Z,99147.97
2023-03-24T11:34:09.373Z,99155.91
2023-03-24T11:36:37.229Z,99148.59
2023-03-24T11:39:05.401Z,99143.72
2023-03-24T11:41:33.296Z,99147.53
2023-03-24T11:44:01.101Z,99140.41
2023-03-24T11:46:29.007Z,99124.88
2023-03-24T11:48:56.839Z,99140.41
2023-03-24T11:51:24.715Z,99138.50
2023-03-24T11:53:52.814Z,99133.25
2023-03-24T11:56:20.736Z,99142.50
2023-03-24T11:58:48.558Z,99137.88
2023-03-24T12:01:16.379Z,99136.22
2023-03-24T12:03:44.275Z,99140.81
2023-03-24T12:06:12.250Z,99141.28
2023-03-24T12:08:40.211Z,99154.31
2023-03-24T12:11:08.101Z,99164.38
2023-03-24T12:13:36.012Z,99171.97
2023-03-24T12:16:03.910Z,99169.00
2023-03-24T12:18:31.674Z,99167.34
2023-03-24T12:20:59.510Z,99167.34
2023-03-24T12:23:28.318Z,99173.84
2023-03-24T12:25:56.277Z,99179.53
2023-03-24T12:28:24.088Z,99180.56
2023-03-24T12:30:52.019Z,99175.97
2023-03-24T12:33:19.821Z,99175.53
2023-03-24T12:35:48.287Z,99183.06
2023-03-24T12:38:16.474Z,99173.63
2023-03-24T12:40:44.295Z,99179.91
2023-03-24T12:43:12.151Z,99180.16
2023-03-24T12:45:40.125Z,99197.34
2023-03-24T12:48:08.020Z,99190.19
2023-03-24T12:50:35.847Z,99195.66
2023-03-24T12:53:08.102Z,99200.50
2023-03-24T12:55:36.615Z,99209.97
2023-03-24T12:58:04.420Z,99236.38
2023-03-24T13:00:32.277Z,99223.63
2023-03-24T13:03:00.132Z,99229.91
2023-03-24T13:05:28.069Z,99227.16
2023-03-24T13:07:58.012Z,99215.63
2023-03-24T13:10:26.785Z,99222.75
2023-03-24T13:12:54.633Z,99217.28
2023-03-24T13:15:22.530Z,99217.53
2023-03-24T13:17:50.432Z,99202.84
2023-03-24T13:20:18.366Z,99198.22
2023-03-24T13:22:46.410Z,99192.53
2023-03-24T13:25:14.311Z,99197.78
2023-03-24T13:27:42.118Z,99198.00
2023-03-24T13:30:09.947Z,99210.81
2023-03-24T13:32:41.049Z,99199.91
2023-03-24T13:35:10.170Z,99212.06
2023-03-24T13:37:38.021Z,99204.53
2023-03-24T13:40:06.934Z,99193.81
2023-03-24T13:42:34.887Z,99191.34
2023-03-24T13:45:03.300Z,99196.78
2023-03-24T13:47:32.414Z,99162.38
2023-03-24T13:50:00.606Z,99165.09
2023-03-24T13:52:28.882Z,99150.44
2023-03-24T13:54:56.721Z,99164.06
2023-03-24T13:57:24.791Z,99160.72
2023-03-24T13:59:52.634Z,99170.16
2023-03-24T14:02:20.595Z,99159.47
2023-03-24T14:04:48.472Z,99154.66
2023-03-24T14:07:16.425Z,99168.25
2023-03-24T14:09:44.322Z,99177.47
2023-03-24T14:12:12.265Z,99171.41
2023-03-24T14:14:40.796Z,99171.63
2023-03-24T14:17:08.810Z,99154.44
2023-03-24T14:19:39.281Z,99153.16
2023-03-24T14:22:07.392Z,99155.06
2023-03-24T14:24:35.558Z,99153.38
2023-03-24T14:27:03.364Z,99152.53
2023-03-24T14:29:31.251Z,99143.97
2023-03-24T14:32:00.494Z,99146.47
2023-03-24T14:34:30.774Z,99154.03
2023-03-24T14:37:00.156Z,99176.91
2023-03-24T14:39:28.323Z,99181.28
2023-03-24T14:41:57.945Z,99180.69
2023-03-24T14:44:26.995Z,99181.28
2023-03-24T14:46:54.824Z,99169.44
2023-03-24T14:49:23.277Z,99166.09
2023-03-24T14:51:51.138Z,99167.41
2023-03-24T14:54:19.029Z,99170.41
2023-03-24T14:56:47.058Z,99179.47
2023-03-24T14:59:15.070Z,99179.13
2023-03-24T15:01:45.562Z,99185.31
2023-03-24T15:04:13.967Z,99185.22
2023-03-24T15:06:42.290Z,99176.34
2023-03-24T15:09:10.777Z,99172.59
2023-03-24T15:11:38.872Z,99176.78
2023-03-24T15:14:06.689Z,99183.44
2023-03-24T15:16:34.569Z,99181.78
2023-03-24T15:19:02.845Z,99184.75
2023-03-24T15:21:30.756Z,99184.97
2023-03-24T15:23:58.656Z,99178.25
2023-03-24T15:26:26.866Z,99181.81
2023-03-24T15:28:54.720Z,99181.00
2023-03-24T15:31:22.748Z,99180.63
2023-03-24T15:33:50.651Z,99167.63
2023-03-24T15:36:18.884Z,99170.00
2023-03-24T15:38:46.755Z,99164.59
2023-03-24T15:41:14.570Z,99169.44
2023-03-24T15:43:43.176Z,99167.78
2023-03-24T15:46:12.648Z,99162.16
2023-03-24T15:48:40.824Z,99152.53
2023-03-24T15:51:09.817Z,99155.69
2023-03-24T15:53:39.677Z,99151.75
2023-03-24T15:56:08.449Z,99152.41
2023-03-24T15:58:36.559Z,99153.94
2023-03-24T16:01:06.595Z,99167.56
2023-03-24T16:03:34.662Z,99152.47
2023-03-24T16:06:03.627Z,99166.78
2023-03-24T16:08:31.462Z,99174.34
2023-03-24T16:10:59.925Z,99184.63
2023-03-24T16:13:27.808Z,99178.59
2023-03-24T16:15:55.600Z,99178.16
2023-03-24T16:18:23.668Z,99185.53
2023-03-24T16:20:52.067Z,99174.91
2023-03-24T16:23:20.015Z,99173.25
2023-03-24T16:25:47.917Z,99182.47
2023-03-24T16:28:15.916Z,99172.78
2023-03-24T16:30:44.132Z,99183.97
2023-03-24T16:33:12.733Z,99181.41
2023-03-24T16:35:40.716Z,99187.38
2023-03-24T16:38:08.737Z,99191.06
2023-03-24T16:40:36.582Z,99193.03
2023-03-24T16:43:04.515Z,99203.75
2023-03-24T16:45:32.566Z,99206.56
2023-03-24T16:48:00.577Z,99219.56
2023-03-24T16:50:28.476Z,99218.97
2023-03-24T16:52:56.341Z,99219.63
2023-03-24T16:55:24.220Z,99220.44
2023-03-24T16:57:52.126Z,99221.72
2023-03-24T17:00:19.963Z,99233.91
2023-03-24T17:02:49.394Z,99236.06
2023-03-24T17:05:18.430Z,99227.25
2023-03-24T17:07:46.426Z,99224.97
2023-03-24T17:10:14.315Z,99220.16
2023-03-24T17:12:42.203Z,99230.25
2023-03-24T17:15:10.039Z,99228.56
2023-03-24T17:17:38.973Z,99226.44
2023-03-24T17:20:07.035Z,99228.34
2023-03-24T17:22:34.920Z,99231.06
2023-03-24T17:25:02.869Z,99234.00
2023-03-24T17:27:30.823Z,99239.91
2023-03-24T17:29:58.733Z,99238.63
2023-03-24T17:32:26.545Z,99233.63
2023-03-24T17:34:54.485Z,99229.44
2023-03-24T17:37:22.477Z,99232.38
2023-03-24T17:39:50.457Z,99222.53
2023-03-24T17:42:18.348Z,99222.16
2023-03-24T17:44:46.196Z,99234.91
2023-03-24T17:47:14.108Z,99239.53
2023-03-24T17:49:42.033Z,99243.31
2023-03-24T17:52:10.052Z,99253.41
2023-03-24T17:54:37.946Z,99246.06
2023-03-24T17:57:05.948Z,99251.72
2023-03-24T17:59:33.913Z,99249.63
2023-03-24T18:02:01.740Z,99247.97
2023-03-24T18:04:30.062Z,99248.16
2023-03-24T18:06:58.332Z,99249.25
2023-03-24T18:09:26.331Z,99257.63
2023-03-24T18:11:54.268Z,99265.22
2023-03-24T18:14:22.173Z,99268.97
2023-03-24T18:16:50.117Z,99269.41
2023-03-24T18:19:17.967Z,99267.97
2023-03-24T18:21:45.937Z,99270.06
2023-03-24T18:24:13.801Z,99275.50
2023-03-24T18:26:41.805Z,99264.84
2023-03-24T18:29:10.036Z,99268.00
2023-03-24T18:31:38.020Z,99271.75
2023-03-24T18:34:05.861Z,99269.66
2023-03-24T18:36:33.710Z,99277.00
2023-03-24T18:39:01.550Z,99283.50
2023-03-24T18:41:30.482Z,99285.41
2023-03-24T18:43:58.351Z,99285.19
2023-03-24T18:46:26.649Z,99286.22
2023-03-24T18:48:54.750Z,99279.75
2023-03-24T18:51:22.861Z,99282.66
2023-03-24T18:53:50.802Z,99290.00
2023-03-24T18:56:18.771Z,99281.22
2023-03-24T18:58:49.817Z,99285.84
2023-03-24T19:01:25.297Z,99288.38
2023-03-24T19:03:53.280Z,99286.47
2023-03-24T19:06:21.169Z,99281.25
2023-03-24T19:08:49.115Z,99282.91
2023-03-24T19:11:17.120Z,99289.44
2023-03-24T19:13:46.480Z,99283.13
2023-03-24T19:16:14.348Z,99286.72
2023-03-24T19:18:42.194Z,99272.47
2023-03-24T19:21:10.261Z,99279.56
2023-03-24T19:23:38.148Z,99273.88
2023-03-24T19:26:06.038Z,99280.56
2023-03-24T19:28:35.606Z,99288.31
2023-03-24T19:31:04.968Z,99284.56
2023-03-24T19:33:32.875Z,99289.59
2023-03-24T19:36:00.746Z,99273.22
2023-03-24T19:38:29.277Z,99284.13
2023-03-24T19:40:57.179Z,99276.56
2023-03-24T19:43:24.970Z,99280.75
2023-03-24T19:45:53.038Z,99274.47
2023-03-24T19:48:21.099Z,99278.47
2023-03-24T19:50:48.966Z,99276.38
2023-03-24T19:53:17.109Z,99284.56
2023-03-24T19:55:44.950Z,99283.94
2023-03-24T19:58:12.855Z,99281.22
2023-03-24T20:00:40.834Z,99282.91
2023-03-24T20:03:08.889Z,99285.84
2023-03-24T20:05:36.976Z,99268.84
2023-03-24T20:08:04.858Z,99277.25
2023-03-24T20:10:32.874Z,99278.28
2023-03-24T20:13:00.665Z,99269.50
2023-03-24T20:15:28.519Z,99276.25
2023-03-24T20:20:24.391Z,99283.56
2023-03-24T20:22:52.307Z,99284.22
2023-03-24T20:25:20.559Z,99285.91
2023-03-24T20:27:48.611Z,99288.22
2023-03-24T20:30:16.690Z,99290.75
2023-03-24T20:32:44.723Z,99288.03
2023-03-24T20:35:13.427Z,99294.31
2023-03-24T20:37:41.257Z,99309.00
2023-03-24T20:40:09.684Z,99330.56
2023-03-24T20:42:37.639Z,99362.22
2023-03-24T20:45:06.921Z,99344.41
2023-03-24T20:47:34.890Z,99346.31
2023-03-24T20:50:02.922Z,99335.81
2023-03-24T20:52:32.610Z,99330.78
2023-03-24T20:55:02.233Z,99359.94
2023-03-24T20:57:31.382Z,99364.94
2023-03-24T20:59:59.216Z,99355.13
2023-03-24T21:02:27.341Z,99350.09
2023-03-24T21:04:55.212Z,99345.47
2023-03-24T21:07:23.717Z,99358.03
2023-03-24T21:09:51.787Z,99342.53
2023-03-24T21:12:19.741Z,99350.94
2023-03-24T21:14:47.760Z,99353.84
2023-03-24T21:17:18.783Z,99369.34
2023-03-24T21:19:46.979Z,99384.69
2023-03-24T21:22:15.920Z,99372.72
2023-03-24T21:24:43.876Z,99372.72
2023-03-24T21:27:11.773Z,99379.81
2023-03-24T21:29:39.798Z,99373.78
2023-03-24T21:32:08.115Z,99371.06
2023-03-24T21:34:37.170Z,99340.03
2023-03-24T21:37:05.172Z,99335.00
2023-03-24T21:39:33.131Z,99330.81
2023-03-24T21:42:03.460Z,99322.41
2023-03-24T21:44:32.254Z,99316.13
2023-03-24T21:47:00.496Z,99316.38
2023-03-24T21:49:28.494Z,99308.19
2023-03-24T21:51:57.853Z,99307.78
2023-03-24T21:54:26.933Z,99310.28
2023-03-24T21:56:55.003Z,99304.00
2023-03-24T21:59:23.386Z,99304.84
2023-03-24T22:04:20.905Z,99309.22
2023-03-24T22:06:48.757Z,99324.53
2023-03-24T22:09:19.274Z,99319.28
2023-03-24T22:11:47.068Z,99326.63
2023-03-24T22:14:16.324Z,99330.38
2023-03-24T22:16:44.187Z,99326.44
2023-03-24T22:19:12.199Z,99319.09
2023-03-24T22:21:40.030Z,99318.66
2023-03-24T22:24:08.019Z,99322.22
2023-03-24T22:26:35.997Z,99338.75
2023-03-24T22:29:03.912Z,99340.44
2023-03-24T22:31:31.904Z,99340.22
2023-03-24T22:33:59.947Z,99332.72
2023-03-24T22:36:27.918Z,99341.28
2023-03-24T22:38:55.845Z,99344.19
2023-03-24T22:41:24.066Z,99340.84
2023-03-24T22:43:52.067Z,99340.44
2023-03-24T22:46:22.605Z,99331.66
2023-03-24T22:48:50.532Z,99337.53
2023-03-24T22:51:19.507Z,99338.78
2023-03-24T22:53:47.499Z,99341.28
2023-03-24T22:56:15.619Z,99322.44
2023-03-24T22:58:43.451Z,99322.84
2023-03-24T23:01:11.361Z,99329.75
2023-03-24T23:03:39.241Z,99324.94
2023-03-24T23:06:07.163Z,99336.25
2023-03-24T23:08:35.002Z,99335.41
2023-03-24T23:11:02.965Z,99339.16
2023-03-24T23:13:30.941Z,99337.50
2023-03-24T23:15:58.910Z,99327.44
2023-03-24T23:18:26.741Z,99320.34
2023-03-24T23:20:54.607Z,99321.41
2023-03-24T23:23:22.472Z,99326.84
2023-03-24T23:25:51.707Z,99337.09
2023-03-24T23:28:19.711Z,99326.22
2023-03-24T23:30:47.658Z,99321.16
2023-03-24T23:33:15.593Z,99324.97
2023-03-24T23:35:43.693Z,99321.59
2023-03-24T23:38:11.599Z,99327.69
2023-03-24T23:40:39.508Z,99326.63
2023-03-24T23:43:07.358Z,99327.03
2023-03-24T23:45:35.204Z,99325.78
2023-03-24T23:48:03.085Z,99317.38
2023-03-24T23:50:30.906Z,99322.44
2023-03-24T23:52:59.336Z,99321.56
2023-03-24T23:55:28.096Z,99320.53
2023-03-24T23:57:56.082Z,99308.63
